ADDS METAR Data INFO
IDs: Format: Raw Decoded Include TAF

Data at: 1639 UTC 22 Jul 2017

KPWG 221556Z AUTO 16007G14KT 120V200 6SM HZ CLR 34/22 A2999 RMK AO2 SLP154 T03390222 $
KPWG 221456Z AUTO 20007KT 10SM CLR 32/22 A2999 RMK AO2 SLP154 T03170222 51009 $
KPWG 221356Z AUTO 19008KT 10SM CLR 29/23 A2998 RMK AO2 SLP152 T02940228 $
KPWG 221256Z AUTO 19006KT 10SM CLR 27/23 A2997 RMK AO2 SLP148 T02670228 $
KPWG 221156Z AUTO 18005KT 10SM CLR 24/22 A2996 RMK AO2 SLP146 T02440222 10283 20244 53005 $
KPWG 221056Z AUTO 19006KT 10SM CLR 25/22 A2995 RMK AO2 SLP143 T02500222 $
KPWG 220956Z AUTO 16005KT 10SM CLR 25/22 A2994 RMK AO2 SLP140 T02500222 $
KPWG 220856Z AUTO 17005KT 10SM CLR 26/22 A2995 RMK AO2 SLP140 T02560222 56005 $
KPWG 220756Z AUTO 17006KT 10SM CLR 27/22 A2995 RMK AO2 SLP141 T02670222 $
KPWG 220656Z AUTO 17007KT 10SM CLR 27/22 A2995 RMK AO2 SLP142 T02720217 $
KPWG 220556Z AUTO 15008KT 10SM CLR 28/22 A2996 RMK AO2 SLP146 T02830217 10372 20283 403940244 50009 $
KPWG 220456Z AUTO 13009KT 10SM CLR 29/22 A2997 RMK AO2 SLP146 T02940217 $
KPWG 220356Z AUTO 14010KT 10SM CLR 31/21 A2996 RMK AO2 SLP143 T03060211 $
KPWG 220256Z AUTO 13011KT 10SM CLR 32/20 A2994 RMK AO2 SLP136 T03170200 53013 $
KPWG 220156Z AUTO 13008KT 10SM CLR 33/19 A2991 RMK AO2 SLP127 T03280194 $
KPWG 220056Z AUTO 12008KT 10SM CLR 35/19 A2990 RMK AO2 SLP124 T03500194 $
KPWG 212356Z AUTO 13010KT 10SM CLR 37/19 A2990 RMK AO2 SLP124 T03720194 10394 20361 56016 $
KPWG 212256Z AUTO 13007KT 100V170 10SM FEW075 38/19 A2991 RMK AO2 SLP127 T03780189 $
KPWG 212156Z AUTO 14007KT 10SM FEW080 38/19 A2992 RMK AO2 SLP133 T03780189 $
KPWG 212056Z AUTO 18008KT 10SM FEW075 39/20 A2995 RMK AO2 SLP139 T03890200 58024 $
KPWG 211956Z AUTO 16008G14KT 10SM FEW070 37/20 A2997 RMK AO2 SLP148 T03720200 $
KPWG 211856Z AUTO 17007KT 10SM CLR 37/21 A2999 RMK AO2 SLP156 T03720206 $
KPWG 211756Z AUTO 15008KT 10SM CLR 36/21 A3002 RMK AO2 SLP164 T03610206 10361 20244 58010 $
KPWG 211656Z AUTO 19007KT 10SM CLR 36/21 A3003 RMK AO2 SLP168 T03610211 TSNO $
KPWG 211556Z AUTO VRB06KT 10SM CLR 34/22 A3004 RMK AO2 SLP172 T03390217 $
KPWG 211456Z AUTO 20006KT 10SM CLR 33/22 A3005 RMK AO2 SLP174 T03280222 50006 $
KPWG 211356Z AUTO 20006KT 10SM CLR 30/23 A3005 RMK AO2 SLP177 T03000228 $
KPWG 211256Z AUTO 18005KT 10SM CLR 27/23 A3004 RMK AO2 SLP174 T02670228 $
KPWG 211156Z AUTO 14005KT 10SM CLR 24/22 A3003 RMK AO2 SLP169 T02440222 10289 20244 53007 $
KPWG 211056Z AUTO 16003KT 10SM CLR 24/22 A3001 RMK AO2 SLP163 T02440222 $
KPWG 210956Z AUTO 19004KT 10SM CLR 26/22 A3000 RMK AO2 SLP158 T02560222 $
KPWG 210856Z AUTO 18005KT 10SM CLR 27/22 A3001 RMK AO2 SLP160 T02670222 58006 $
KPWG 210756Z AUTO 17006KT 10SM CLR 27/23 A3002 RMK AO2 SLP164 T02720228 $
KPWG 210656Z AUTO 16006KT 10SM CLR 28/23 A3002 RMK AO2 SLP166 T02780228 $
KPWG 210556Z AUTO 16007KT 10SM CLR 29/22 A3003 RMK AO2 SLP167 T02890217 10372 20289 403890244 50010 $
KPWG 210456Z AUTO 15010KT 10SM CLR 30/22 A3003 RMK AO2 SLP167 T03000217 $